createdAt,value
2018-06-18T16:47:21.275Z,28.59
2018-06-18T16:49:50.906Z,29.14
2018-06-18T16:52:20.895Z,29.56
2018-06-18T16:54:50.437Z,29.88
2018-06-18T16:57:20.235Z,30.11
2018-06-18T16:59:49.868Z,30.28
2018-06-18T17:02:19.536Z,30.48
2018-06-18T17:04:49.163Z,30.49
2018-06-18T17:07:18.960Z,30.30
2018-06-18T17:09:48.576Z,30.20
2018-06-18T17:12:18.140Z,30.15
2018-06-18T17:14:47.788Z,30.22
2018-06-18T17:17:17.565Z,30.24
2018-06-18T17:19:47.411Z,30.16
2018-06-18T17:22:17.025Z,30.25
2018-06-18T17:24:50.405Z,30.05
2018-06-18T17:27:21.438Z,30.13
2018-06-18T17:29:51.163Z,30.00
2018-06-18T17:32:20.707Z,29.82
2018-06-18T17:34:50.434Z,29.84
2018-06-18T17:37:19.977Z,29.63
2018-06-18T17:39:49.557Z,29.51
2018-06-18T17:42:20.184Z,29.55
2018-06-18T17:44:49.804Z,29.34
2018-06-18T17:47:19.299Z,29.26
2018-06-18T17:49:48.890Z,29.15
2018-06-18T17:52:18.544Z,28.96
2018-06-18T17:54:48.042Z,28.91
2018-06-18T17:57:17.677Z,28.83
2018-06-18T17:59:47.212Z,28.77
2018-06-18T18:02:16.865Z,28.66
2018-06-18T18:04:46.423Z,28.44
2018-06-18T18:07:16.048Z,28.41
2018-06-18T18:09:45.528Z,28.14
2018-06-18T18:12:14.896Z,28.12
2018-06-18T18:14:44.468Z,28.04
2018-06-18T18:17:13.968Z,27.94
2018-06-18T18:19:43.528Z,27.90
2018-06-18T18:22:13.290Z,27.88
2018-06-18T18:24:42.785Z,27.79
2018-06-18T18:27:12.615Z,27.62
2018-06-18T18:29:42.103Z,27.57
2018-06-18T18:32:11.774Z,27.63
2018-06-18T18:34:41.226Z,27.53
2018-06-18T18:37:10.898Z,27.48
2018-06-18T18:39:40.450Z,27.50
2018-06-18T18:42:09.999Z,27.35
2018-06-18T18:44:39.560Z,27.31
2018-06-18T18:47:09.157Z,27.24
2018-06-18T18:49:39.798Z,27.24
2018-06-18T18:52:09.489Z,27.19
2018-06-18T18:56:03.987Z,27.13
2018-06-18T18:59:04.000Z,26.82
2018-06-18T19:01:33.924Z,26.74
2018-06-18T19:04:07.092Z,26.75
2018-06-18T19:06:36.861Z,26.65
2018-06-18T19:09:10.280Z,26.69
2018-06-18T19:11:41.476Z,26.66
2018-06-18T19:14:11.079Z,26.66
2018-06-18T19:16:40.660Z,26.57
2018-06-18T19:19:10.417Z,26.55
2018-06-18T19:21:39.957Z,26.53
2018-06-18T19:24:09.478Z,26.47
2018-06-18T19:26:39.042Z,26.44
2018-06-18T19:29:08.588Z,26.32
2018-06-18T19:31:38.681Z,26.35
2018-06-18T19:34:13.383Z,26.35
2018-06-18T19:36:52.208Z,26.27
2018-06-18T19:39:24.440Z,26.19
2018-06-18T19:41:54.039Z,26.24
2018-06-18T19:44:23.750Z,26.19
2018-06-18T19:47:49.699Z,26.07
2018-06-18T19:50:19.641Z,25.93
2018-06-18T19:52:49.834Z,25.94
2018-06-18T19:55:26.598Z,25.94
2018-06-18T19:57:56.314Z,25.87
2018-06-18T20:00:44.482Z,25.91
2018-06-18T20:03:14.394Z,25.81
2018-06-18T20:05:44.165Z,25.76
2018-06-18T20:08:17.890Z,25.71
2018-06-18T20:10:47.527Z,25.67
2018-06-18T20:13:17.628Z,25.67
2018-06-18T20:15:50.471Z,25.55
2018-06-18T20:18:20.123Z,25.49
2018-06-18T20:20:49.770Z,25.59
2018-06-18T20:23:23.492Z,25.52
2018-06-18T20:26:00.305Z,25.33
2018-06-18T20:28:30.117Z,25.06
2018-06-18T20:30:59.802Z,25.17
2018-06-18T20:33:30.782Z,25.03
2018-06-18T20:36:07.092Z,24.95
2018-06-18T20:38:36.681Z,24.82
2018-06-18T20:41:06.641Z,24.51
2018-06-18T20:43:46.893Z,24.57
2018-06-18T20:46:16.427Z,24.65
2018-06-18T20:48:46.097Z,24.47
2018-06-18T20:51:16.321Z,24.11
2018-06-18T20:53:46.002Z,24.29
2018-06-18T20:56:15.549Z,24.36
2018-06-18T20:58:45.347Z,24.34
2018-06-18T21:01:15.088Z,24.18
2018-06-18T21:03:44.630Z,24.15
2018-06-18T21:06:20.253Z,23.88
2018-06-18T21:08:50.843Z,23.74
2018-06-18T21:11:20.432Z,23.58
2018-06-18T21:13:50.773Z,23.60
2018-06-18T21:16:20.279Z,23.48
2018-06-18T21:18:50.356Z,23.39
2018-06-18T21:21:20.155Z,23.20
2018-06-18T21:23:49.932Z,23.38
2018-06-18T21:26:19.532Z,23.40
2018-06-18T21:28:49.355Z,23.41
2018-06-18T21:31:19.018Z,23.48
2018-06-18T21:33:48.675Z,23.36
2018-06-18T21:36:19.439Z,23.31
2018-06-18T21:38:49.198Z,23.23
2018-06-18T21:41:18.994Z,23.08
2018-06-18T21:43:48.585Z,23.04
2018-06-18T21:46:18.124Z,22.96
2018-06-18T21:48:47.627Z,23.02
2018-06-18T21:51:17.248Z,22.55
2018-06-18T21:53:47.047Z,22.55
2018-06-18T21:56:16.651Z,22.37
2018-06-18T21:58:46.162Z,22.44
2018-06-18T22:01:20.435Z,22.36
2018-06-18T22:03:49.897Z,22.23
2018-06-18T22:06:19.390Z,22.22
2018-06-18T22:08:49.113Z,22.14
2018-06-18T22:11:18.814Z,22.21
2018-06-18T22:13:48.547Z,22.17
2018-06-18T22:16:18.346Z,22.20
2018-06-18T22:18:47.916Z,21.74
2018-06-18T22:21:17.643Z,21.90
2018-06-18T22:23:47.170Z,21.80
2018-06-18T22:26:16.738Z,21.58
2018-06-18T22:28:46.260Z,21.54
2018-06-18T22:31:15.734Z,21.41
2018-06-18T22:33:45.207Z,21.20
2018-06-18T22:36:14.784Z,21.07
2018-06-18T22:38:44.375Z,21.09
2018-06-18T22:41:13.856Z,21.01
2018-06-18T22:43:43.691Z,21.05
2018-06-18T22:46:13.411Z,21.02
2018-06-18T22:48:43.386Z,20.90
2018-06-18T22:51:12.976Z,20.70
2018-06-18T22:53:42.609Z,20.76
2018-06-18T22:56:12.274Z,20.76
2018-06-18T22:58:42.682Z,20.78
2018-06-18T23:01:12.277Z,20.81
2018-06-18T23:03:41.991Z,20.72
2018-06-18T23:06:11.621Z,20.59
2018-06-18T23:08:41.372Z,20.55
2018-06-18T23:11:14.030Z,20.50
2018-06-18T23:13:43.946Z,20.39
2018-06-18T23:16:14.609Z,20.41
2018-06-18T23:18:44.888Z,20.25
2018-06-18T23:21:14.549Z,20.19
2018-06-18T23:23:44.207Z,20.11
2018-06-18T23:26:13.676Z,20.10
2018-06-18T23:28:49.396Z,20.06
2018-06-18T23:31:18.834Z,19.97
2018-06-18T23:34:17.424Z,19.96
2018-06-18T23:36:48.002Z,20.02
2018-06-18T23:39:24.430Z,19.95
2018-06-18T23:41:58.851Z,20.00
2018-06-18T23:44:33.889Z,19.94
2018-06-18T23:47:03.657Z,19.97
2018-06-18T23:49:33.285Z,20.03
2018-06-18T23:52:02.810Z,20.09
2018-06-18T23:54:32.430Z,20.19
2018-06-18T23:57:02.784Z,20.13
2018-06-18T23:59:36.069Z,20.16
